This is the latest recevied weather packets stored in our database for station/object IZ1HMT-3. If no packets are shown the sender has not sent any weather packets the latest 10 day(s).
| Time | Temp. | Humidity | Pressure | Rain* | Wind** | Luminosity | Snow |
|---|---|---|---|---|---|---|---|
| 1787739374 | 33.33° C | 45% | 1017.9 hPa | - | - | - | - |
| 1787738770 | 33.89° C | 44% | 1017.9 hPa | - | - | - | - |
| 1787738166 | 35° C | 41% | 1017.8 hPa | - | - | - | - |
| 1787736957 | 38.33° C | 35% | 1017.6 hPa | - | - | - | - |
| 1787736353 | 39.44° C | 34% | 1017.5 hPa | - | - | - | - |
| 1787735748 | 38.89° C | 35% | 1017.7 hPa | - | - | - | - |
| 1787735144 | 39.44° C | 34% | 1017.7 hPa | - | - | - | - |
| 1787734540 | 40° C | 34% | 1017.5 hPa | - | - | - | - |
| 1787733936 | 39.44° C | 35% | 1017.3 hPa | - | - | - | - |
| 1787732727 | 38.89° C | 37% | 1017.4 hPa | - | - | - | - |
| 1787730914 | 36.67° C | 41% | 1017.5 hPa | - | - | - | - |
| 1787729706 | 36.11° C | 41% | 1016.9 hPa | - | - | - | - |
| 1787728497 | 36.67° C | 41% | 1016.4 hPa | - | - | - | - |
| 1787727893 | 36.67° C | 42% | 1016.5 hPa | - | - | - | - |
| 1787727288 | 34.44° C | 48% | 1016.6 hPa | - | - | - | - |
| 1787719998 | 24.44° C | 67% | 1016.2 hPa | - | - | - | - |
| 1787719394 | 25° C | 67% | 1016.1 hPa | - | - | - | - |
| 1787718790 | 24.44° C | 67% | 1016.1 hPa | - | - | - | - |
| 1787718186 | 25° C | 67% | 1016 hPa | - | - | - | - |
| 1787717583 | 25° C | 67% | 1016 hPa | - | - | - | - |
| 1787716979 | 25° C | 66% | 1016 hPa | - | - | - | - |
| 1787716375 | 25° C | 66% | 1015.9 hPa | - | - | - | - |
| 1787715168 | 25° C | 66% | 1015.8 hPa | - | - | - | - |
| 1787714564 | 25° C | 66% | 1015.6 hPa | - | - | - | - |
| 1787713961 | 25° C | 66% | 1015.6 hPa | - | - | - | - |
* Rain since midnight (hover to see other rain measurements)
** Current wind speed in m/s (hover to see current wind gust speed)